Time;durP1;ratioP1;P1;durP2;ratioP2;P2;SDS_P1;SDS_P2;PMS_P1;PMS_P2;Temp;Humidity;BMP_temperature;BMP_pressure;BME280_temperature;BME280_humidity;BME280_pressure;Samples;Min_cycle;Max_cycle;Signal;HPM_P1;HPM_P2
2024/02/06 00:01:50;;;;;;;15.77;11.37;;;9.10;89.10;;;;;;5035078;28;20184;-91
2024/02/06 00:04:17;;;;;;;18.30;11.37;;;9.10;89.30;;;;;;5038236;28;20152;-91
2024/02/06 00:06:43;;;;;;;16.03;11.57;;;9.10;89.10;;;;;;5036843;28;20564;-91
2024/02/06 00:09:09;;;;;;;16.17;10.47;;;9.00;89.40;;;;;;5032720;28;20196;-91
2024/02/06 00:11:37;;;;;;;15.13;10.97;;;9.00;89.50;;;;;;5030703;28;20186;-90
2024/02/06 00:14:03;;;;;;;14.43;10.43;;;9.00;89.40;;;;;;5032425;28;20213;-91
2024/02/06 00:16:30;;;;;;;18.30;12.57;;;9.10;89.30;;;;;;5035781;28;20267;-91
2024/02/06 00:18:56;;;;;;;16.23;10.90;;;9.10;89.20;;;;;;5036646;28;20204;-91
2024/02/06 00:21:23;;;;;;;13.97;11.03;;;9.10;89.10;;;;;;5035927;28;20169;-91
2024/02/06 00:23:49;;;;;;;19.80;12.73;;;9.00;89.30;;;;;;5036746;28;20184;-91
2024/02/06 00:26:17;;;;;;;14.33;11.53;;;9.10;89.00;;;;;;5036755;28;20244;-91
2024/02/06 00:28:42;;;;;;;20.93;11.93;;;9.10;89.10;;;;;;5038116;28;20188;-93
2024/02/06 00:31:17;;;;;;;11.80;10.80;;;9.10;88.90;;;;;;5037458;28;20271;-91
2024/02/06 00:33:43;;;;;;;19.27;12.40;;;9.10;88.80;;;;;;5035943;28;20195;-91
2024/02/06 00:36:09;;;;;;;12.60;11.30;;;9.10;88.90;;;;;;5038775;28;20207;-91
2024/02/06 00:38:35;;;;;;;14.73;12.03;;;9.10;88.90;;;;;;5042926;28;20219;-91
2024/02/06 00:41:00;;;;;;;15.17;11.10;;;9.10;88.90;;;;;;5040873;28;20184;-91
2024/02/06 00:43:27;;;;;;;17.63;11.47;;;9.00;89.10;;;;;;5041768;28;20188;-91
2024/02/06 00:45:53;;;;;;;15.43;12.47;;;9.20;88.40;;;;;;5057536;28;20160;-91
2024/02/06 00:48:19;;;;;;;11.93;10.67;;;9.10;88.50;;;;;;5040989;28;20203;-91
2024/02/06 00:50:45;;;;;;;17.57;12.00;;;9.20;88.20;;;;;;5039823;28;20189;-91
2024/02/06 00:53:12;;;;;;;14.33;11.00;;;9.20;88.10;;;;;;5040234;28;20191;-91
2024/02/06 00:55:37;;;;;;;14.50;11.10;;;9.10;88.60;;;;;;5041898;28;20192;-92
2024/02/06 00:58:05;;;;;;;17.73;11.27;;;9.10;88.60;;;;;;5023672;28;20219;-91
2024/02/06 01:00:32;;;;;;;18.73;11.70;;;9.00;88.70;;;;;;5039560;28;20180;-91
2024/02/06 01:02:57;;;;;;;16.97;12.50;;;9.10;88.60;;;;;;5032928;28;20172;-91
2024/02/06 01:05:23;;;;;;;14.67;12.53;;;9.20;88.40;;;;;;5034287;28;20238;-91
2024/02/06 01:07:49;;;;;;;19.13;13.47;;;9.10;88.40;;;;;;5033404;28;20197;-92
2024/02/06 01:10:15;;;;;;;17.10;11.60;;;9.10;88.40;;;;;;5036009;28;20164;-93
2024/02/06 01:12:40;;;;;;;12.23;11.07;;;9.10;88.40;;;;;;5038222;28;20312;-91
2024/02/06 01:15:06;;;;;;;12.57;11.23;;;9.20;88.20;;;;;;5034287;28;20200;-92
2024/02/06 01:17:32;;;;;;;12.77;11.43;;;9.00;88.60;;;;;;5035979;28;20202;-92
2024/02/06 01:19:59;;;;;;;17.73;12.10;;;9.10;88.40;;;;;;5036602;28;20156;-92
2024/02/06 01:22:24;;;;;;;20.03;18.30;;;9.10;88.40;;;;;;5036700;28;20172;-90
2024/02/06 01:24:50;;;;;;;22.33;20.07;;;9.10;88.40;;;;;;5038004;28;20180;-92
2024/02/06 01:27:17;;;;;;;21.03;19.23;;;9.10;88.10;;;;;;5034823;28;20193;-90
2024/02/06 01:29:43;;;;;;;19.93;17.93;;;9.20;88.00;;;;;;5121502;22;20231;-92
2024/02/06 01:32:09;;;;;;;23.60;21.20;;;9.10;88.20;;;;;;5075641;28;20187;-92
2024/02/06 01:34:34;;;;;;;23.80;21.33;;;9.10;88.10;;;;;;5076802;28;20182;-90
2024/02/06 01:37:02;;;;;;;23.70;19.90;;;9.10;88.00;;;;;;5077693;28;20211;-91
2024/02/06 01:39:28;;;;;;;22.77;20.63;;;9.20;87.90;;;;;;5077702;28;20179;-91
2024/02/06 01:41:54;;;;;;;22.50;20.27;;;9.10;87.80;;;;;;5075112;28;20187;-91
2024/02/06 01:44:22;;;;;;;25.27;22.73;;;9.10;88.10;;;;;;5074706;28;20213;-90
2024/02/06 01:46:49;;;;;;;23.83;21.63;;;9.10;88.00;;;;;;5073988;28;20548;-90
2024/02/06 01:49:15;;;;;;;23.17;21.00;;;9.00;88.30;;;;;;5075501;28;20190;-91
2024/02/06 01:51:41;;;;;;;23.07;20.53;;;9.10;88.10;;;;;;5076010;28;20196;-91
2024/02/06 01:54:07;;;;;;;22.00;19.77;;;9.10;88.10;;;;;;5076858;28;20183;-92
2024/02/06 01:56:35;;;;;;;24.10;20.47;;;9.00;88.40;;;;;;5060197;28;20210;-91
2024/02/06 01:59:01;;;;;;;21.90;19.80;;;9.10;88.10;;;;;;5076625;28;20225;-91
2024/02/06 02:01:27;;;;;;;22.83;20.40;;;9.10;88.10;;;;;;5075188;28;20271;-91
2024/02/06 02:03:53;;;;;;;21.13;19.53;;;9.10;88.10;;;;;;5073482;28;20286;-92
2024/02/06 02:06:21;;;;;;;22.80;20.67;;;9.10;87.90;;;;;;5073064;28;20186;-91
2024/02/06 02:08:47;;;;;;;21.70;20.10;;;9.10;88.10;;;;;;5073678;28;20203;-92
2024/02/06 02:11:13;;;;;;;24.27;21.33;;;9.10;87.90;;;;;;5074196;28;20246;-91
2024/02/06 02:13:38;;;;;;;18.10;13.10;;;9.10;88.10;;;;;;5073254;28;20190;-91
2024/02/06 02:16:05;;;;;;;19.73;12.57;;;9.00;88.20;;;;;;5073330;28;20209;-91
2024/02/06 02:18:33;;;;;;;14.37;12.20;;;9.10;88.20;;;;;;5072684;28;20294;-91
2024/02/06 02:20:59;;;;;;;13.50;12.03;;;9.10;88.10;;;;;;5074172;28;20187;-91
2024/02/06 02:23:25;;;;;;;18.00;12.67;;;9.20;87.80;;;;;;5072846;28;20175;-93
2024/02/06 02:25:51;;;;;;;16.53;12.87;;;9.20;87.80;;;;;;5074015;28;20187;-91
2024/02/06 02:28:17;;;;;;;14.43;12.93;;;9.10;87.70;;;;;;5074564;28;20210;-92
2024/02/06 02:30:43;;;;;;;28.20;13.80;;;9.10;87.70;;;;;;5075968;28;20286;-91
2024/02/06 02:33:09;;;;;;;20.17;13.43;;;9.20;87.70;;;;;;5072810;28;20195;-91
2024/02/06 02:35:35;;;;;;;16.27;12.53;;;9.10;88.00;;;;;;5072511;28;20187;-91
2024/02/06 02:38:01;;;;;;;19.13;13.00;;;9.20;87.60;;;;;;5072633;28;20213;-91
2024/02/06 02:40:26;;;;;;;18.67;13.37;;;9.20;87.40;;;;;;5072977;28;20186;-91
2024/02/06 02:42:52;;;;;;;20.30;13.97;;;9.20;87.60;;;;;;5072570;28;20179;-91
2024/02/06 02:45:18;;;;;;;16.90;11.53;;;9.10;87.60;;;;;;5072694;28;20180;-91
2024/02/06 02:47:46;;;;;;;18.10;13.57;;;9.20;87.50;;;;;;5074502;28;20229;-91
2024/02/06 02:50:12;;;;;;;20.60;13.30;;;9.20;87.30;;;;;;5072918;28;20206;-91
2024/02/06 02:52:37;;;;;;;20.40;13.60;;;9.20;87.50;;;;;;5074473;28;20238;-92
2024/02/06 02:55:04;;;;;;;17.97;13.90;;;9.30;87.00;;;;;;5074378;28;20195;-92
2024/02/06 02:57:29;;;;;;;22.67;15.00;;;9.30;86.90;;;;;;5072911;28;20202;-90
2024/02/06 02:59:55;;;;;;;17.97;12.27;;;9.20;87.30;;;;;;5070703;28;20163;-91
2024/02/06 03:02:21;;;;;;;25.00;14.93;;;9.20;87.30;;;;;;5070831;28;20542;-91
2024/02/06 03:04:46;;;;;;;20.17;13.87;;;9.20;87.30;;;;;;5070722;28;20270;-92
2024/02/06 03:07:12;;;;;;;24.43;15.47;;;9.20;87.20;;;;;;5071687;28;20203;-91
2024/02/06 03:09:40;;;;;;;14.53;13.03;;;9.30;87.00;;;;;;5068093;28;20176;-91
2024/02/06 03:12:07;;;;;;;24.50;14.07;;;9.20;87.40;;;;;;5071965;28;20175;-91
2024/02/06 03:14:33;;;;;;;19.00;12.87;;;9.20;87.40;;;;;;5072057;28;20175;-91
2024/02/06 03:16:58;;;;;;;17.40;13.00;;;9.20;87.30;;;;;;5064925;28;20294;-90
2024/02/06 03:19:24;;;;;;;19.27;12.50;;;9.20;87.40;;;;;;5066705;28;20234;-91
2024/02/06 03:21:50;;;;;;;15.17;12.50;;;9.30;87.20;;;;;;5064736;28;20195;-91
2024/02/06 03:24:15;;;;;;;23.57;13.93;;;9.30;87.20;;;;;;5065887;28;20179;-91
2024/02/06 03:26:41;;;;;;;15.63;13.10;;;9.30;87.20;;;;;;5064678;28;20211;-91
2024/02/06 03:29:06;;;;;;;19.03;13.43;;;9.30;87.30;;;;;;5066877;28;20211;-91
2024/02/06 03:31:32;;;;;;;14.13;12.70;;;9.30;87.00;;;;;;5066046;28;20186;-91
2024/02/06 03:33:57;;;;;;;20.73;13.93;;;9.30;87.20;;;;;;5065636;28;20186;-91
2024/02/06 03:36:23;;;;;;;13.90;12.63;;;9.20;87.50;;;;;;5064836;28;20199;-91
2024/02/06 03:38:49;;;;;;;19.03;13.50;;;9.20;87.40;;;;;;5066702;28;20191;-92
2024/02/06 03:41:14;;;;;;;19.47;12.40;;;9.20;87.30;;;;;;5065766;28;20175;-91
2024/02/06 03:43:40;;;;;;;25.03;13.83;;;9.30;87.40;;;;;;5064644;28;20180;-91
2024/02/06 03:46:05;;;;;;;26.50;21.90;;;9.30;87.30;;;;;;5064440;28;20187;-91
2024/02/06 03:48:34;;;;;;;;;;;9.30;87.30;;;;;;5067228;28;20146;-91
2024/02/06 03:51:03;;;;;;;;;;;9.30;87.50;;;;;;5065531;28;19915;-92
2024/02/06 03:53:28;;;;;;;;;;;9.30;87.40;;;;;;5065900;28;19904;-92
2024/02/06 03:55:54;;;;;;;;;;;9.20;87.50;;;;;;5065357;28;19934;-91
2024/02/06 03:58:20;;;;;;;;;;;9.30;87.50;;;;;;5065771;28;19909;-92
2024/02/06 04:00:49;;;;;;;;;;;9.20;87.70;;;;;;5064936;28;19927;-91
2024/02/06 04:03:18;;;;;;;;;;;9.20;87.80;;;;;;5065848;28;19928;-92
2024/02/06 04:05:44;;;;;;;;;;;9.30;87.50;;;;;;5066855;28;20411;-92
2024/02/06 04:08:09;;;;;;;;;;;9.30;87.50;;;;;;5065960;28;19908;-91
2024/02/06 04:10:37;;;;;;;24.50;22.07;;;9.30;87.40;;;;;;5064153;28;20006;-91
2024/02/06 04:13:03;;;;;;;23.30;21.10;;;9.30;87.60;;;;;;5065195;28;20171;-92
2024/02/06 04:15:30;;;;;;;23.00;21.10;;;9.30;87.50;;;;;;5062910;28;20199;-91
2024/02/06 04:17:56;;;;;;;37.43;21.33;;;9.20;87.80;;;;;;5066796;28;20210;-91
2024/02/06 04:20:21;;;;;;;27.30;20.97;;;9.30;87.40;;;;;;5065498;28;20776;-93
2024/02/06 04:22:47;;;;;;;24.03;21.40;;;9.30;87.40;;;;;;5065778;28;20179;-91
2024/02/06 04:25:13;;;;;;;29.37;22.30;;;9.30;87.30;;;;;;5065757;28;20209;-91
2024/02/06 04:27:38;;;;;;;24.30;21.60;;;9.30;87.50;;;;;;5065376;28;20583;-92
2024/02/06 04:30:04;;;;;;;29.43;21.87;;;9.30;87.40;;;;;;5064175;28;20746;-91
2024/02/06 04:32:30;;;;;;;22.10;20.20;;;9.30;87.60;;;;;;5066064;28;20183;-91
2024/02/06 04:34:55;;;;;;;;;;;9.30;87.50;;;;;;5065230;28;20324;-90
2024/02/06 04:37:22;;;;;;;22.53;20.73;;;9.30;87.50;;;;;;5062768;28;19904;-91
2024/02/06 04:39:47;;;;;;;22.60;20.90;;;9.30;87.60;;;;;;5064323;28;20182;-91
2024/02/06 04:42:13;;;;;;;26.57;21.77;;;9.30;87.60;;;;;;5065018;28;20167;-92
2024/02/06 04:44:38;;;;;;;22.30;20.17;;;9.30;87.80;;;;;;5067604;28;20743;-92
2024/02/06 04:47:04;;;;;;;29.10;22.53;;;9.40;87.40;;;;;;5066866;28;20180;-89
2024/02/06 04:49:30;;;;;;;20.93;19.20;;;9.40;87.20;;;;;;5064074;28;20179;-92
2024/02/06 04:51:55;;;;;;;22.07;19.87;;;9.40;87.40;;;;;;5069215;28;20179;-91
2024/02/06 04:54:21;;;;;;;23.47;19.97;;;9.40;87.40;;;;;;5065181;28;20167;-89
2024/02/06 04:56:47;;;;;;;31.30;22.20;;;9.40;87.30;;;;;;5066448;28;20541;-92
2024/02/06 04:59:13;;;;;;;17.10;11.83;;;9.40;87.40;;;;;;5064216;28;20151;-92
2024/02/06 05:01:39;;;;;;;13.43;11.80;;;9.40;87.20;;;;;;5066196;28;20199;-89
2024/02/06 05:04:06;;;;;;;15.80;12.47;;;9.40;87.20;;;;;;5064681;28;20167;-91
2024/02/06 05:06:31;;;;;;;17.30;14.20;;;9.50;87.00;;;;;;5065953;28;20201;-89
2024/02/06 05:08:57;;;;;;;16.40;13.37;;;9.50;87.20;;;;;;5064745;28;20218;-91
2024/02/06 05:11:22;;;;;;;14.43;12.63;;;9.40;87.30;;;;;;5070210;28;20188;-91
2024/02/06 05:13:48;;;;;;;15.57;12.67;;;9.50;87.50;;;;;;5064799;28;20187;-92
2024/02/06 05:16:14;;;;;;;20.10;12.43;;;9.40;87.50;;;;;;5064901;28;20295;-89
2024/02/06 05:18:40;;;;;;;23.33;12.10;;;9.40;87.60;;;;;;5066077;28;20200;-91
2024/02/06 05:21:05;;;;;;;28.27;13.90;;;9.40;87.40;;;;;;5066348;28;20188;-92
2024/02/06 05:23:31;;;;;;;16.87;13.33;;;9.40;87.50;;;;;;5068398;28;20191;-91
2024/02/06 05:25:56;;;;;;;16.07;12.10;;;9.40;87.70;;;;;;5068606;28;20214;-90
2024/02/06 05:28:22;;;;;;;16.47;12.17;;;9.50;87.60;;;;;;5068372;28;20205;-90
2024/02/06 05:30:47;;;;;;;19.77;13.03;;;9.40;87.80;;;;;;5070435;28;20199;-91
2024/02/06 05:33:13;;;;;;;13.80;12.10;;;9.40;87.80;;;;;;5068994;28;20191;-92
2024/02/06 05:35:38;;;;;;;16.03;12.43;;;9.50;87.60;;;;;;5067197;28;20572;-91
2024/02/06 05:38:04;;;;;;;13.80;11.23;;;9.50;87.70;;;;;;5069178;28;20263;-92
2024/02/06 05:40:30;;;;;;;16.33;12.60;;;9.50;87.50;;;;;;5069167;28;20180;-92
2024/02/06 05:42:55;;;;;;;15.60;11.77;;;9.50;87.70;;;;;;5070638;28;20175;-92
2024/02/06 05:45:21;;;;;;;21.80;12.50;;;9.60;87.30;;;;;;5070105;28;20267;-91
2024/02/06 05:47:47;;;;;;;25.83;13.10;;;9.60;87.20;;;;;;5071506;28;20206;-92
2024/02/06 05:50:13;;;;;;;24.50;12.23;;;9.60;87.30;;;;;;5068163;28;20175;-91
2024/02/06 05:52:38;;;;;;;15.63;12.03;;;9.60;87.40;;;;;;5069193;28;20171;-91
2024/02/06 05:55:06;;;;;;;23.47;13.10;;;9.50;87.60;;;;;;5068532;28;20186;-90
2024/02/06 05:57:32;;;;;;;15.37;12.03;;;9.50;87.80;;;;;;5071175;28;20277;-92
2024/02/06 05:59:57;;;;;;;15.40;12.63;;;9.50;87.90;;;;;;5071199;28;20179;-92
2024/02/06 06:02:23;;;;;;;16.13;12.37;;;9.60;87.50;;;;;;5072111;28;20180;-91
2024/02/06 06:04:48;;;;;;;16.93;12.93;;;9.60;87.70;;;;;;5070327;28;20179;-90
2024/02/06 06:07:14;;;;;;;15.40;11.90;;;9.50;87.50;;;;;;5068114;28;20202;-92
2024/02/06 06:09:40;;;;;;;17.90;12.57;;;9.60;87.50;;;;;;5068430;28;20182;-92
2024/02/06 06:12:06;;;;;;;15.57;11.23;;;9.60;87.50;;;;;;5070496;28;20262;-90
2024/02/06 06:14:31;;;;;;;23.00;13.40;;;9.60;87.70;;;;;;5070215;28;20179;-91
2024/02/06 06:16:57;;;;;;;;;;;9.70;87.20;;;;;;5067798;28;19909;-91
2024/02/06 06:19:22;;;;;;;19.87;12.93;;;9.70;87.20;;;;;;5067367;28;19942;-90
2024/02/06 06:21:48;;;;;;;18.00;12.30;;;9.70;87.40;;;;;;5070647;28;20171;-92
2024/02/06 06:24:13;;;;;;;13.60;11.90;;;9.70;87.40;;;;;;5069566;28;20191;-89
2024/02/06 06:26:41;;;;;;;23.37;13.30;;;9.60;87.60;;;;;;5069805;28;20176;-89
2024/02/06 06:29:08;;;;;;;;;;;9.70;87.50;;;;;;5069119;28;20199;-89
2024/02/06 06:31:34;;;;;;;14.00;11.70;;;9.60;87.70;;;;;;5071952;28;20002;-90
2024/02/06 06:33:59;;;;;;;17.10;12.83;;;9.60;87.90;;;;;;5068769;28;20544;-92
2024/02/06 06:36:26;;;;;;;23.70;12.50;;;9.60;87.90;;;;;;5070837;28;20294;-91
2024/02/06 06:38:54;;;;;;;17.03;11.57;;;9.60;87.90;;;;;;5069027;28;20198;-91
2024/02/06 06:41:22;;;;;;;21.17;12.53;;;9.60;88.00;;;;;;5068401;28;20176;-90
2024/02/06 06:43:48;;;;;;;22.47;13.23;;;9.50;88.30;;;;;;5069590;28;20202;-91
2024/02/06 06:46:13;;;;;;;18.03;12.43;;;9.50;88.40;;;;;;5068178;28;20176;-91
2024/02/06 06:48:39;;;;;;;17.70;12.17;;;9.50;88.60;;;;;;5068429;28;20203;-91
2024/02/06 06:51:04;;;;;;;18.27;11.67;;;9.50;88.90;;;;;;5069113;28;20184;-92
2024/02/06 06:53:30;;;;;;;27.67;13.67;;;9.50;88.90;;;;;;5065958;28;20187;-90
2024/02/06 06:55:55;;;;;;;17.93;10.90;;;9.40;89.20;;;;;;5068190;28;20203;-90
2024/02/06 06:58:21;;;;;;;14.43;10.77;;;9.50;89.30;;;;;;5067451;28;20200;-91
2024/02/06 07:00:47;;;;;;;25.93;12.33;;;9.40;89.70;;;;;;5068527;28;20182;-90
2024/02/06 07:03:13;;;;;;;21.33;11.43;;;9.40;90.00;;;;;;5065809;28;20171;-91
2024/02/06 07:05:39;;;;;;;18.43;11.30;;;9.30;90.30;;;;;;5066558;28;20533;-91
2024/02/06 07:08:05;;;;;;;16.83;9.83;;;9.30;90.60;;;;;;5066942;28;20263;-91
2024/02/06 07:10:31;;;;;;;18.60;10.93;;;9.20;90.80;;;;;;5066357;28;20182;-90
2024/02/06 07:12:56;;;;;;;19.53;10.77;;;9.20;90.90;;;;;;5066679;28;20183;-92
2024/02/06 07:15:22;;;;;;;21.33;10.70;;;9.20;91.10;;;;;;5069565;28;20195;-91
2024/02/06 07:17:48;;;;;;;21.43;13.83;;;9.20;91.10;;;;;;5068286;28;20191;-90
2024/02/06 07:20:13;;;;;;;23.07;12.73;;;9.20;91.20;;;;;;5071146;28;20175;-92
2024/02/06 07:22:39;;;;;;;19.73;14.30;;;9.20;91.40;;;;;;5070655;28;19912;-91
2024/02/06 07:25:05;;;;;;;16.00;13.27;;;9.20;91.50;;;;;;5070075;28;20167;-92
2024/02/06 07:27:32;;;;;;;20.33;14.00;;;9.10;91.80;;;;;;5069740;28;20206;-91
2024/02/06 07:30:03;;;;;;;19.40;13.00;;;9.10;92.10;;;;;;5068038;28;20245;-92
2024/02/06 07:32:29;;;;;;;22.70;13.37;;;9.00;92.30;;;;;;5067711;28;20167;-89
2024/02/06 07:35:22;;;;;;;21.13;13.27;;;9.10;92.50;;;;;;5069336;28;20168;-91
2024/02/06 07:37:47;;;;;;;19.83;13.10;;;9.00;92.50;;;;;;5068247;28;20199;-91
2024/02/06 07:40:13;;;;;;;24.50;12.73;;;9.00;92.80;;;;;;5074035;28;20222;-91
2024/02/06 07:42:39;;;;;;;10.63;9.77;;;9.00;92.80;;;;;;5075472;28;20178;-92
2024/02/06 07:45:04;;;;;;;18.13;12.50;;;9.00;92.90;;;;;;5074578;28;20176;-92
2024/02/06 07:47:30;;;;;;;19.03;11.57;;;9.00;92.90;;;;;;5071260;28;20221;-93
2024/02/06 07:49:56;;;;;;;19.73;12.17;;;9.10;92.50;;;;;;5073004;28;20266;-91
2024/02/06 07:52:21;;;;;;;18.80;11.30;;;9.10;92.50;;;;;;5071789;28;20184;-91
2024/02/06 07:54:47;;;;;;;18.83;12.10;;;9.10;92.60;;;;;;5073768;28;20171;-92
2024/02/06 07:57:13;;;;;;;24.77;10.73;;;9.10;92.70;;;;;;5071701;28;20223;-91
2024/02/06 07:59:38;;;;;;;20.67;8.23;;;9.10;92.80;;;;;;5069620;28;20152;-90
2024/02/06 08:02:05;;;;;;;20.43;8.83;;;9.10;93.00;;;;;;5070164;28;20183;-90
2024/02/06 08:04:31;;;;;;;10.57;6.37;;;9.00;93.10;;;;;;5070799;28;20568;-90
2024/02/06 08:06:56;;;;;;;11.37;6.73;;;9.10;93.10;;;;;;5060024;28;20175;-90
2024/02/06 08:09:23;;;;;;;21.83;7.47;;;9.10;93.10;;;;;;5058508;28;20229;-91
2024/02/06 08:11:50;;;;;;;13.53;6.17;;;9.20;93.00;;;;;;5061143;28;20172;-91
2024/02/06 08:14:16;;;;;;;19.40;8.27;;;9.10;93.00;;;;;;5065508;28;20528;-92
2024/02/06 08:16:42;;;;;;;13.87;7.07;;;9.10;93.10;;;;;;5070420;28;20199;-91
2024/02/06 08:19:08;;;;;;;16.03;6.97;;;9.20;93.00;;;;;;5072601;28;20202;-91
2024/02/06 08:21:34;;;;;;;19.10;7.63;;;9.20;93.00;;;;;;5071178;28;20272;-91
2024/02/06 08:24:00;;;;;;;11.80;7.00;;;9.20;92.70;;;;;;5073602;28;20179;-91
2024/02/06 08:26:25;;;;;;;19.07;9.07;;;9.30;92.70;;;;;;5069520;28;20484;-92
2024/02/06 08:28:51;;;;;;;16.17;8.47;;;9.30;92.50;;;;;;5072070;28;20232;-92
2024/02/06 08:31:22;;;;;;;13.10;8.17;;;9.30;92.30;;;;;;5074701;28;20176;-92
2024/02/06 08:33:49;;;;;;;30.70;9.43;;;9.30;92.20;;;;;;5076255;28;20210;-91
2024/02/06 08:36:15;;;;;;;19.80;8.27;;;9.30;92.10;;;;;;5072659;28;20262;-91
2024/02/06 08:38:41;;;;;;;16.30;7.93;;;9.40;92.00;;;;;;5070448;28;20199;-91
2024/02/06 08:41:06;;;;;;;7.60;6.93;;;9.40;92.00;;;;;;5068538;28;20611;-91
2024/02/06 08:43:32;;;;;;;15.13;7.57;;;9.40;92.00;;;;;;5064788;28;20176;-91
2024/02/06 08:45:58;;;;;;;14.07;7.17;;;9.50;91.90;;;;;;5065642;28;20313;-92
2024/02/06 08:48:24;;;;;;;20.00;7.97;;;9.40;91.80;;;;;;5066435;28;20414;-92
2024/02/06 08:50:50;;;;;;;16.37;7.60;;;9.40;92.00;;;;;;5072342;28;20258;-91
2024/02/06 08:53:16;;;;;;;21.40;8.30;;;9.40;92.20;;;;;;5072768;28;20171;-91
2024/02/06 08:55:43;;;;;;;12.23;7.30;;;9.40;92.30;;;;;;5074495;28;20226;-91
2024/02/06 08:58:10;;;;;;;16.47;7.67;;;9.40;92.30;;;;;;5059151;28;20265;-90
2024/02/06 09:00:36;;;;;;;12.47;6.57;;;9.40;92.40;;;;;;5077368;28;20159;-91
2024/02/06 09:03:02;;;;;;;16.07;9.57;;;9.40;92.40;;;;;;5078617;28;20186;-91
2024/02/06 09:05:28;;;;;;;16.70;10.87;;;9.40;92.60;;;;;;5081861;28;20182;-91
2024/02/06 09:07:54;;;;;;;25.37;10.97;;;9.30;92.70;;;;;;5078920;28;20221;-91
2024/02/06 09:10:20;;;;;;;17.00;10.45;;;9.30;92.80;;;;;;5081216;28;20179;-91
2024/02/06 09:12:46;;;;;;;20.93;9.93;;;9.30;92.90;;;;;;5081048;28;20186;-92
2024/02/06 09:15:11;;;;;;;15.97;10.50;;;9.30;92.90;;;;;;5083284;28;20164;-92
2024/02/06 09:17:37;;;;;;;12.07;8.30;;;9.30;93.10;;;;;;5082348;28;20195;-92
2024/02/06 09:20:05;;;;;;;15.67;10.00;;;9.30;93.20;;;;;;5081289;28;20183;-92
2024/02/06 09:22:31;;;;;;;12.87;9.17;;;9.30;93.20;;;;;;5082670;28;20176;-92
2024/02/06 09:24:56;;;;;;;10.93;8.67;;;9.30;93.20;;;;;;5078369;28;20185;-91
2024/02/06 09:27:22;;;;;;;14.23;9.03;;;9.40;93.20;;;;;;5079412;28;20199;-92
2024/02/06 09:29:48;;;;;;;16.03;8.87;;;9.40;93.30;;;;;;5080531;28;20191;-90
2024/02/06 09:32:14;;;;;;;14.60;6.13;;;9.40;93.30;;;;;;5082081;28;20179;-93
2024/02/06 09:34:40;;;;;;;16.97;6.20;;;9.40;93.40;;;;;;5082275;28;20179;-92
2024/02/06 09:37:05;;;;;;;14.57;6.27;;;9.40;93.40;;;;;;5081217;28;20293;-92
2024/02/06 09:39:31;;;;;;;14.60;6.33;;;9.40;93.30;;;;;;5081702;28;20168;-91
2024/02/06 09:42:01;;;;;;;9.30;6.23;;;9.40;93.30;;;;;;5081809;28;20206;-91
2024/02/06 09:44:28;;;;;;;12.33;6.20;;;9.50;93.40;;;;;;5080787;28;20164;-92
2024/02/06 09:46:58;;;;;;;17.20;7.00;;;9.50;93.20;;;;;;5080468;28;20221;-91
2024/02/06 09:49:23;;;;;;;6.63;5.90;;;9.60;93.10;;;;;;5077364;28;20206;-90
2024/02/06 09:51:50;;;;;;;12.10;5.73;;;9.60;93.00;;;;;;5079066;28;20175;-92
2024/02/06 09:54:16;;;;;;;5.63;4.70;;;9.60;93.30;;;;;;5080234;28;20194;-91
2024/02/06 09:56:45;;;;;;;7.60;5.40;;;9.50;93.60;;;;;;5077899;28;20218;-92
2024/02/06 09:59:13;;;;;;;6.33;5.40;;;9.50;93.80;;;;;;5078384;28;20201;-91
2024/02/06 10:01:42;;;;;;;6.13;4.93;;;9.50;93.80;;;;;;5078898;28;20192;-90
2024/02/06 10:04:10;;;;;;;6.90;5.30;;;9.50;93.90;;;;;;5081192;28;20147;-91
2024/02/06 10:06:36;;;;;;;9.10;5.20;;;9.40;94.10;;;;;;5079249;28;20171;-92
2024/02/06 10:09:02;;;;;;;16.87;5.43;;;9.40;94.20;;;;;;5079866;28;20186;-91
2024/02/06 10:11:33;;;;;;;8.87;5.30;;;9.40;94.40;;;;;;5078053;28;20175;-91
2024/02/06 10:13:58;;;;;;;5.80;5.10;;;9.40;94.40;;;;;;5078814;28;20172;-91
2024/02/06 10:16:24;;;;;;;7.97;4.80;;;9.40;94.40;;;;;;5082250;28;20215;-92
2024/02/06 10:18:52;;;;;;;13.53;6.33;;;9.50;94.30;;;;;;5083247;28;20349;-94
2024/02/06 10:21:17;;;;;;;8.67;4.93;;;9.40;94.40;;;;;;5082174;28;20196;-92
2024/02/06 10:23:43;;;;;;;8.43;5.07;;;9.40;94.50;;;;;;5072452;28;20179;-92
2024/02/06 10:26:08;;;;;;;10.70;7.13;;;9.40;94.50;;;;;;5068148;28;20167;-91
2024/02/06 10:28:34;;;;;;;5.30;4.67;;;9.40;94.50;;;;;;5068794;28;20205;-90
2024/02/06 10:31:12;;;;;;;5.83;5.07;;;9.50;94.60;;;;;;5078844;28;20183;-92
2024/02/06 10:33:40;;;;;;;9.97;6.13;;;9.40;94.60;;;;;;5082252;28;20243;-92
2024/02/06 10:36:06;;;;;;;6.73;5.80;;;9.40;94.70;;;;;;5080346;28;20191;-92
2024/02/06 10:38:32;;;;;;;6.37;5.30;;;9.40;94.70;;;;;;5073398;28;20270;-91
2024/02/06 10:40:58;;;;;;;13.50;4.70;;;9.40;94.70;;;;;;5078641;28;20179;-92
2024/02/06 10:43:30;;;;;;;7.13;4.83;;;9.40;94.80;;;;;;5080114;28;20177;-93
2024/02/06 10:46:00;;;;;;;8.87;5.03;;;9.40;94.80;;;;;;5078859;28;20167;-92
2024/02/06 10:48:26;;;;;;;8.27;5.27;;;9.40;94.80;;;;;;5077146;28;20646;-92
2024/02/06 10:50:59;;;;;;;5.50;4.40;;;9.40;94.70;;;;;;5071523;28;20175;-91
2024/02/06 10:53:26;;;;;;;5.57;4.53;;;9.50;94.50;;;;;;5072492;28;20179;-91
2024/02/06 10:55:58;;;;;;;10.70;5.03;;;9.60;94.10;;;;;;5074080;28;20274;-91
2024/02/06 10:58:29;;;;;;;10.13;5.77;;;9.60;93.90;;;;;;5073120;28;20192;-91
2024/02/06 11:00:55;;;;;;;10.40;6.03;;;9.70;93.70;;;;;;5072748;28;20662;-91
2024/02/06 11:03:23;;;;;;;10.10;6.63;;;9.70;93.60;;;;;;5074137;28;20197;-91
2024/02/06 11:06:03;;;;;;;10.13;6.03;;;9.70;93.30;;;;;;5074706;28;20239;-91
2024/02/06 11:08:35;;;;;;;11.73;6.00;;;9.80;93.10;;;;;;5077199;28;20206;-92
2024/02/06 11:11:02;;;;;;;13.20;7.63;;;9.80;92.90;;;;;;5075310;28;20172;-91
2024/02/06 11:13:31;;;;;;;14.37;6.67;;;9.80;92.80;;;;;;5072758;28;20171;-90
2024/02/06 11:16:02;;;;;;;12.80;7.63;;;9.90;92.60;;;;;;5072163;28;20191;-91
2024/02/06 11:18:33;;;;;;;11.60;7.03;;;9.90;92.30;;;;;;5074125;28;20191;-91
2024/02/06 11:21:03;;;;;;;20.57;7.70;;;10.00;92.20;;;;;;5076039;28;20151;-92
2024/02/06 11:23:30;;;;;;;15.87;7.60;;;9.90;92.10;;;;;;5079382;28;20168;-92
2024/02/06 11:25:56;;;;;;;12.73;7.27;;;10.00;92.10;;;;;;5078064;28;20207;-91
2024/02/06 11:28:23;;;;;;;5.80;5.40;;;10.00;92.00;;;;;;5070748;28;20203;-91
2024/02/06 11:30:50;;;;;;;13.93;7.07;;;10.00;92.00;;;;;;5073895;28;20199;-91
2024/02/06 11:33:18;;;;;;;13.57;8.07;;;10.00;91.70;;;;;;5078107;28;20182;-91
2024/02/06 11:35:44;;;;;;;8.47;6.33;;;10.10;91.40;;;;;;5089083;28;20214;-91
2024/02/06 11:38:12;;;;;;;7.70;7.03;;;10.10;91.50;;;;;;5071652;28;20195;-91
2024/02/06 11:40:41;;;;;;;14.63;8.10;;;10.20;91.40;;;;;;5070878;28;20180;-92
2024/02/06 11:43:07;;;;;;;9.47;7.07;;;10.20;90.90;;;;;;5071397;28;20172;-91
2024/02/06 11:45:34;;;;;;;12.10;7.80;;;10.20;91.10;;;;;;5073311;28;20182;-91
2024/02/06 11:48:06;;;;;;;13.80;7.10;;;10.20;91.10;;;;;;5068501;28;20199;-91
2024/02/06 11:50:34;;;;;;;17.80;9.83;;;10.20;91.00;;;;;;5066855;28;20182;-90
2024/02/06 11:53:03;;;;;;;14.40;8.93;;;10.30;90.50;;;;;;5063778;28;20186;-90
2024/02/06 11:55:30;;;;;;;16.30;9.07;;;10.30;90.50;;;;;;5067264;28;20209;-90
2024/02/06 11:58:00;;;;;;;15.63;8.67;;;10.30;90.40;;;;;;5070414;28;20202;-91
2024/02/06 12:00:26;;;;;;;21.13;10.23;;;10.30;90.30;;;;;;5075204;28;20160;-92
2024/02/06 12:02:53;;;;;;;21.50;10.43;;;10.30;90.20;;;;;;5074725;28;20175;-91
2024/02/06 12:05:19;;;;;;;14.93;9.43;;;10.40;90.00;;;;;;5074563;28;20202;-89
2024/02/06 12:07:58;;;;;;;14.07;8.63;;;10.40;89.80;;;;;;5077437;28;20218;-91
2024/02/06 12:10:26;;;;;;;13.17;11.53;;;10.30;90.10;;;;;;5076822;28;20179;-90
2024/02/06 12:12:56;;;;;;;17.17;12.23;;;10.30;90.20;;;;;;5093764;28;20167;-88
2024/02/06 12:15:23;;;;;;;14.80;11.20;;;10.40;90.10;;;;;;5071416;28;20293;-90
2024/02/06 12:17:49;;;;;;;15.93;12.17;;;10.40;89.80;;;;;;5062504;28;20614;-91
2024/02/06 12:20:18;;;;;;;21.00;13.13;;;10.50;89.50;;;;;;5062277;28;20210;-91
2024/02/06 12:22:55;;;;;;;14.20;11.87;;;10.50;89.40;;;;;;5064110;28;20183;-92
2024/02/06 12:25:21;;;;;;;20.40;12.57;;;10.50;89.60;;;;;;5061585;28;20210;-90
2024/02/06 12:27:58;;;;;;;21.00;12.70;;;10.50;89.60;;;;;;5084028;28;20199;-88
2024/02/06 12:30:28;;;;;;;22.67;12.97;;;10.50;89.40;;;;;;5062899;28;20179;-91
2024/02/06 12:32:58;;;;;;;16.03;12.23;;;10.50;89.40;;;;;;5063162;28;20179;-91
2024/02/06 12:35:25;;;;;;;15.00;13.40;;;10.60;89.30;;;;;;5064618;28;20206;-91
2024/02/06 12:37:50;;;;;;;23.40;12.97;;;10.50;89.50;;;;;;5063773;28;20686;-91
2024/02/06 12:40:18;;;;;;;18.50;13.30;;;10.60;89.20;;;;;;5071877;28;20178;-91